sensor_id;sensor_type;location;lat;lon;timestamp;P1;durP1;ratioP1;P2;durP2;ratioP2
63046;SDS011;62025;39.238;9.126;2023-05-02T00:01:43;12.15;;;3.95;;
63046;SDS011;62025;39.238;9.126;2023-05-02T00:04:09;9.60;;;3.55;;
63046;SDS011;62025;39.238;9.126;2023-05-02T00:06:35;12.32;;;3.63;;
63046;SDS011;62025;39.238;9.126;2023-05-02T00:09:02;9.88;;;3.58;;
63046;SDS011;62025;39.238;9.126;2023-05-02T00:11:28;7.85;;;3.10;;
63046;SDS011;62025;39.238;9.126;2023-05-02T00:13:54;9.05;;;3.20;;
63046;SDS011;62025;39.238;9.126;2023-05-02T00:16:20;9.27;;;3.10;;
63046;SDS011;62025;39.238;9.126;2023-05-02T00:18:46;15.27;;;3.92;;
63046;SDS011;62025;39.238;9.126;2023-05-02T00:21:13;11.38;;;3.70;;
63046;SDS011;62025;39.238;9.126;2023-05-02T00:23:39;10.38;;;3.75;;
63046;SDS011;62025;39.238;9.126;2023-05-02T00:26:08;8.25;;;3.22;;
63046;SDS011;62025;39.238;9.126;2023-05-02T00:28:38;9.70;;;2.92;;
63046;SDS011;62025;39.238;9.126;2023-05-02T00:31:04;8.10;;;2.97;;
63046;SDS011;62025;39.238;9.126;2023-05-02T00:33:30;8.52;;;3.05;;
63046;SDS011;62025;39.238;9.126;2023-05-02T00:35:56;10.63;;;3.40;;
63046;SDS011;62025;39.238;9.126;2023-05-02T00:38:22;9.35;;;2.95;;
63046;SDS011;62025;39.238;9.126;2023-05-02T00:40:49;11.90;;;2.47;;
63046;SDS011;62025;39.238;9.126;2023-05-02T00:43:18;8.93;;;2.70;;
63046;SDS011;62025;39.238;9.126;2023-05-02T00:45:44;6.88;;;2.70;;
63046;SDS011;62025;39.238;9.126;2023-05-02T00:48:11;15.27;;;2.90;;
63046;SDS011;62025;39.238;9.126;2023-05-02T00:50:39;7.93;;;2.70;;
63046;SDS011;62025;39.238;9.126;2023-05-02T00:53:08;10.65;;;2.65;;
63046;SDS011;62025;39.238;9.126;2023-05-02T00:55:34;7.80;;;2.10;;
63046;SDS011;62025;39.238;9.126;2023-05-02T00:58:03;13.38;;;2.75;;
63046;SDS011;62025;39.238;9.126;2023-05-02T01:03:26;7.75;;;2.30;;
63046;SDS011;62025;39.238;9.126;2023-05-02T01:12:31;8.68;;;2.20;;
63046;SDS011;62025;39.238;9.126;2023-05-02T01:15:23;8.60;;;2.72;;
63046;SDS011;62025;39.238;9.126;2023-05-02T01:17:51;11.15;;;3.05;;
63046;SDS011;62025;39.238;9.126;2023-05-02T01:20:20;9.23;;;2.78;;
63046;SDS011;62025;39.238;9.126;2023-05-02T01:22:51;12.05;;;2.67;;
63046;SDS011;62025;39.238;9.126;2023-05-02T01:25:35;7.75;;;2.80;;
63046;SDS011;62025;39.238;9.126;2023-05-02T01:28:30;8.48;;;2.10;;
63046;SDS011;62025;39.238;9.126;2023-05-02T01:31:20;13.02;;;2.83;;
63046;SDS011;62025;39.238;9.126;2023-05-02T01:33:49;14.55;;;2.88;;
63046;SDS011;62025;39.238;9.126;2023-05-02T01:36:15;10.07;;;2.30;;
63046;SDS011;62025;39.238;9.126;2023-05-02T01:38:42;9.98;;;2.60;;
63046;SDS011;62025;39.238;9.126;2023-05-02T01:41:09;8.75;;;2.30;;
63046;SDS011;62025;39.238;9.126;2023-05-02T01:43:37;10.37;;;2.40;;
63046;SDS011;62025;39.238;9.126;2023-05-02T01:46:05;8.18;;;2.38;;
63046;SDS011;62025;39.238;9.126;2023-05-02T01:48:34;7.50;;;2.40;;
63046;SDS011;62025;39.238;9.126;2023-05-02T01:51:01;8.45;;;2.00;;
63046;SDS011;62025;39.238;9.126;2023-05-02T01:53:29;5.93;;;2.13;;
63046;SDS011;62025;39.238;9.126;2023-05-02T01:55:58;9.23;;;2.40;;
63046;SDS011;62025;39.238;9.126;2023-05-02T01:58:26;9.07;;;2.28;;
63046;SDS011;62025;39.238;9.126;2023-05-02T02:00:55;6.70;;;2.15;;
63046;SDS011;62025;39.238;9.126;2023-05-02T02:03:24;6.75;;;2.10;;
63046;SDS011;62025;39.238;9.126;2023-05-02T02:05:54;9.05;;;2.45;;
63046;SDS011;62025;39.238;9.126;2023-05-02T02:08:21;10.60;;;2.50;;
63046;SDS011;62025;39.238;9.126;2023-05-02T02:10:48;9.43;;;2.28;;
63046;SDS011;62025;39.238;9.126;2023-05-02T02:13:33;11.00;;;2.58;;
63046;SDS011;62025;39.238;9.126;2023-05-02T02:16:04;8.15;;;2.42;;
63046;SDS011;62025;39.238;9.126;2023-05-02T02:18:36;8.38;;;2.13;;
63046;SDS011;62025;39.238;9.126;2023-05-02T02:21:05;7.97;;;2.45;;
63046;SDS011;62025;39.238;9.126;2023-05-02T02:23:35;11.45;;;2.20;;
63046;SDS011;62025;39.238;9.126;2023-05-02T02:26:03;9.30;;;2.40;;
63046;SDS011;62025;39.238;9.126;2023-05-02T02:28:31;9.60;;;2.40;;
63046;SDS011;62025;39.238;9.126;2023-05-02T02:30:58;10.17;;;2.10;;
63046;SDS011;62025;39.238;9.126;2023-05-02T02:33:26;11.23;;;2.30;;
63046;SDS011;62025;39.238;9.126;2023-05-02T02:35:58;10.02;;;2.80;;
63046;SDS011;62025;39.238;9.126;2023-05-02T02:41:18;11.45;;;2.92;;
63046;SDS011;62025;39.238;9.126;2023-05-02T02:43:55;12.38;;;2.70;;
63046;SDS011;62025;39.238;9.126;2023-05-02T02:55:17;9.60;;;2.45;;
63046;SDS011;62025;39.238;9.126;2023-05-02T02:58:18;8.90;;;2.17;;
63046;SDS011;62025;39.238;9.126;2023-05-02T03:00:59;8.32;;;2.17;;
63046;SDS011;62025;39.238;9.126;2023-05-02T03:03:31;10.40;;;2.33;;
63046;SDS011;62025;39.238;9.126;2023-05-02T03:05:58;10.05;;;2.65;;
63046;SDS011;62025;39.238;9.126;2023-05-02T03:08:26;10.57;;;2.40;;
63046;SDS011;62025;39.238;9.126;2023-05-02T03:10:52;8.20;;;2.25;;
63046;SDS011;62025;39.238;9.126;2023-05-02T03:13:18;9.25;;;2.60;;
63046;SDS011;62025;39.238;9.126;2023-05-02T03:18:23;8.38;;;2.20;;
63046;SDS011;62025;39.238;9.126;2023-05-02T03:20:51;11.57;;;2.45;;
63046;SDS011;62025;39.238;9.126;2023-05-02T03:23:17;9.68;;;3.15;;
63046;SDS011;62025;39.238;9.126;2023-05-02T03:25:43;10.30;;;2.20;;
63046;SDS011;62025;39.238;9.126;2023-05-02T03:28:14;13.18;;;2.50;;
63046;SDS011;62025;39.238;9.126;2023-05-02T03:30:43;11.25;;;2.55;;
63046;SDS011;62025;39.238;9.126;2023-05-02T03:33:09;10.60;;;2.25;;
63046;SDS011;62025;39.238;9.126;2023-05-02T03:35:37;10.75;;;2.38;;
63046;SDS011;62025;39.238;9.126;2023-05-02T03:38:03;10.93;;;2.45;;
63046;SDS011;62025;39.238;9.126;2023-05-02T03:40:29;12.60;;;2.50;;
63046;SDS011;62025;39.238;9.126;2023-05-02T03:42:56;12.23;;;3.17;;
63046;SDS011;62025;39.238;9.126;2023-05-02T03:45:28;9.25;;;2.53;;
63046;SDS011;62025;39.238;9.126;2023-05-02T03:47:54;12.50;;;2.53;;
63046;SDS011;62025;39.238;9.126;2023-05-02T03:50:20;16.30;;;3.28;;
63046;SDS011;62025;39.238;9.126;2023-05-02T03:52:49;12.48;;;2.25;;
63046;SDS011;62025;39.238;9.126;2023-05-02T03:55:20;12.82;;;2.70;;
63046;SDS011;62025;39.238;9.126;2023-05-02T03:57:47;15.13;;;2.70;;
63046;SDS011;62025;39.238;9.126;2023-05-02T04:00:13;13.43;;;2.80;;
63046;SDS011;62025;39.238;9.126;2023-05-02T04:02:47;12.15;;;2.80;;
63046;SDS011;62025;39.238;9.126;2023-05-02T04:05:16;11.40;;;3.45;;
63046;SDS011;62025;39.238;9.126;2023-05-02T04:07:43;13.65;;;2.60;;
63046;SDS011;62025;39.238;9.126;2023-05-02T04:10:09;14.27;;;2.67;;
63046;SDS011;62025;39.238;9.126;2023-05-02T04:12:42;14.07;;;3.00;;
63046;SDS011;62025;39.238;9.126;2023-05-02T04:15:09;10.90;;;2.80;;
63046;SDS011;62025;39.238;9.126;2023-05-02T04:17:36;8.65;;;2.35;;
63046;SDS011;62025;39.238;9.126;2023-05-02T04:20:03;14.75;;;2.67;;
63046;SDS011;62025;39.238;9.126;2023-05-02T04:22:32;10.77;;;2.70;;
63046;SDS011;62025;39.238;9.126;2023-05-02T04:25:02;16.50;;;3.60;;
63046;SDS011;62025;39.238;9.126;2023-05-02T04:27:31;9.57;;;2.70;;
63046;SDS011;62025;39.238;9.126;2023-05-02T04:29:58;9.90;;;2.47;;
63046;SDS011;62025;39.238;9.126;2023-05-02T04:32:24;9.15;;;2.70;;
63046;SDS011;62025;39.238;9.126;2023-05-02T04:34:51;6.55;;;2.30;;
63046;SDS011;62025;39.238;9.126;2023-05-02T04:37:17;12.77;;;2.55;;
63046;SDS011;62025;39.238;9.126;2023-05-02T04:39:45;10.80;;;2.50;;
63046;SDS011;62025;39.238;9.126;2023-05-02T04:42:16;15.40;;;3.08;;
63046;SDS011;62025;39.238;9.126;2023-05-02T04:44:53;14.32;;;3.72;;
63046;SDS011;62025;39.238;9.126;2023-05-02T04:47:19;11.85;;;4.10;;
63046;SDS011;62025;39.238;9.126;2023-05-02T04:49:45;14.80;;;3.33;;
63046;SDS011;62025;39.238;9.126;2023-05-02T04:52:12;13.68;;;3.30;;
63046;SDS011;62025;39.238;9.126;2023-05-02T04:54:38;10.30;;;3.50;;
63046;SDS011;62025;39.238;9.126;2023-05-02T04:57:05;15.73;;;3.22;;
63046;SDS011;62025;39.238;9.126;2023-05-02T04:59:35;11.15;;;2.90;;
63046;SDS011;62025;39.238;9.126;2023-05-02T05:02:03;15.27;;;2.88;;
63046;SDS011;62025;39.238;9.126;2023-05-02T05:04:29;14.88;;;3.55;;
63046;SDS011;62025;39.238;9.126;2023-05-02T05:06:56;9.68;;;2.65;;
63046;SDS011;62025;39.238;9.126;2023-05-02T05:11:50;10.55;;;2.80;;
63046;SDS011;62025;39.238;9.126;2023-05-02T05:14:17;14.07;;;3.45;;
63046;SDS011;62025;39.238;9.126;2023-05-02T05:16:46;8.30;;;3.00;;
63046;SDS011;62025;39.238;9.126;2023-05-02T05:19:13;11.98;;;3.17;;
63046;SDS011;62025;39.238;9.126;2023-05-02T05:21:39;8.40;;;2.78;;
63046;SDS011;62025;39.238;9.126;2023-05-02T05:24:06;7.85;;;3.42;;
63046;SDS011;62025;39.238;9.126;2023-05-02T05:26:33;8.40;;;2.67;;
63046;SDS011;62025;39.238;9.126;2023-05-02T05:29:00;9.57;;;3.40;;
63046;SDS011;62025;39.238;9.126;2023-05-02T05:31:31;8.25;;;3.05;;
63046;SDS011;62025;39.238;9.126;2023-05-02T05:33:59;10.07;;;3.37;;
63046;SDS011;62025;39.238;9.126;2023-05-02T05:36:27;9.57;;;3.38;;
63046;SDS011;62025;39.238;9.126;2023-05-02T05:38:53;9.40;;;3.25;;
63046;SDS011;62025;39.238;9.126;2023-05-02T05:41:19;10.93;;;3.10;;
63046;SDS011;62025;39.238;9.126;2023-05-02T05:43:52;11.48;;;3.25;;
63046;SDS011;62025;39.238;9.126;2023-05-02T05:46:18;12.52;;;3.17;;
63046;SDS011;62025;39.238;9.126;2023-05-02T05:48:44;8.02;;;2.80;;
63046;SDS011;62025;39.238;9.126;2023-05-02T05:51:11;9.57;;;3.40;;
63046;SDS011;62025;39.238;9.126;2023-05-02T05:53:37;9.55;;;3.05;;
63046;SDS011;62025;39.238;9.126;2023-05-02T05:56:09;11.70;;;2.83;;
63046;SDS011;62025;39.238;9.126;2023-05-02T05:58:39;8.82;;;3.03;;
63046;SDS011;62025;39.238;9.126;2023-05-02T06:01:06;8.07;;;3.05;;
63046;SDS011;62025;39.238;9.126;2023-05-02T06:03:34;8.25;;;3.13;;
63046;SDS011;62025;39.238;9.126;2023-05-02T06:06:00;9.10;;;2.70;;
63046;SDS011;62025;39.238;9.126;2023-05-02T06:08:26;8.25;;;3.08;;
63046;SDS011;62025;39.238;9.126;2023-05-02T06:10:52;5.38;;;3.00;;
63046;SDS011;62025;39.238;9.126;2023-05-02T06:13:18;8.30;;;3.15;;
63046;SDS011;62025;39.238;9.126;2023-05-02T06:15:45;7.05;;;2.83;;
63046;SDS011;62025;39.238;9.126;2023-05-02T06:18:12;5.32;;;2.60;;
63046;SDS011;62025;39.238;9.126;2023-05-02T06:20:41;7.53;;;2.75;;
63046;SDS011;62025;39.238;9.126;2023-05-02T06:23:07;6.10;;;3.20;;
63046;SDS011;62025;39.238;9.126;2023-05-02T06:25:35;5.78;;;2.78;;
63046;SDS011;62025;39.238;9.126;2023-05-02T06:28:02;6.38;;;2.50;;
63046;SDS011;62025;39.238;9.126;2023-05-02T06:30:28;7.07;;;2.90;;
63046;SDS011;62025;39.238;9.126;2023-05-02T06:32:54;4.55;;;2.30;;
63046;SDS011;62025;39.238;9.126;2023-05-02T06:35:20;5.43;;;2.58;;
63046;SDS011;62025;39.238;9.126;2023-05-02T06:37:46;4.88;;;2.33;;
63046;SDS011;62025;39.238;9.126;2023-05-02T06:40:12;5.65;;;2.65;;
63046;SDS011;62025;39.238;9.126;2023-05-02T06:42:38;6.20;;;2.30;;
63046;SDS011;62025;39.238;9.126;2023-05-02T06:45:04;6.63;;;2.50;;
63046;SDS011;62025;39.238;9.126;2023-05-02T06:47:31;7.05;;;2.63;;
63046;SDS011;62025;39.238;9.126;2023-05-02T06:49:57;4.95;;;2.40;;
63046;SDS011;62025;39.238;9.126;2023-05-02T06:52:23;5.30;;;2.38;;
63046;SDS011;62025;39.238;9.126;2023-05-02T06:54:49;7.28;;;2.70;;
63046;SDS011;62025;39.238;9.126;2023-05-02T06:57:15;7.15;;;2.60;;
63046;SDS011;62025;39.238;9.126;2023-05-02T06:59:41;4.45;;;2.60;;
63046;SDS011;62025;39.238;9.126;2023-05-02T07:02:07;5.15;;;2.65;;
63046;SDS011;62025;39.238;9.126;2023-05-02T07:04:33;4.78;;;2.35;;
63046;SDS011;62025;39.238;9.126;2023-05-02T07:06:59;4.75;;;2.35;;
63046;SDS011;62025;39.238;9.126;2023-05-02T07:09:25;5.95;;;2.42;;
63046;SDS011;62025;39.238;9.126;2023-05-02T07:11:51;5.47;;;2.50;;
63046;SDS011;62025;39.238;9.126;2023-05-02T07:14:17;6.68;;;2.65;;
63046;SDS011;62025;39.238;9.126;2023-05-02T07:16:43;5.75;;;2.80;;
63046;SDS011;62025;39.238;9.126;2023-05-02T07:19:09;5.40;;;2.58;;
63046;SDS011;62025;39.238;9.126;2023-05-02T07:21:35;5.53;;;2.80;;
63046;SDS011;62025;39.238;9.126;2023-05-02T07:24:01;6.15;;;2.80;;
63046;SDS011;62025;39.238;9.126;2023-05-02T07:26:28;4.88;;;2.40;;
63046;SDS011;62025;39.238;9.126;2023-05-02T07:28:54;5.55;;;2.20;;
63046;SDS011;62025;39.238;9.126;2023-05-02T07:31:20;3.45;;;1.98;;
63046;SDS011;62025;39.238;9.126;2023-05-02T07:33:46;5.18;;;1.83;;
63046;SDS011;62025;39.238;9.126;2023-05-02T07:36:12;4.00;;;2.00;;
63046;SDS011;62025;39.238;9.126;2023-05-02T07:38:38;5.07;;;2.13;;
63046;SDS011;62025;39.238;9.126;2023-05-02T07:41:04;2.78;;;1.98;;
63046;SDS011;62025;39.238;9.126;2023-05-02T07:43:30;3.90;;;2.10;;
63046;SDS011;62025;39.238;9.126;2023-05-02T07:45:56;4.78;;;2.13;;
63046;SDS011;62025;39.238;9.126;2023-05-02T07:48:22;4.80;;;2.40;;
63046;SDS011;62025;39.238;9.126;2023-05-02T07:50:48;4.18;;;2.20;;
63046;SDS011;62025;39.238;9.126;2023-05-02T07:53:14;4.28;;;2.45;;
63046;SDS011;62025;39.238;9.126;2023-05-02T07:55:40;6.45;;;2.58;;
63046;SDS011;62025;39.238;9.126;2023-05-02T07:58:06;4.65;;;2.60;;
63046;SDS011;62025;39.238;9.126;2023-05-02T08:00:32;4.47;;;2.75;;
63046;SDS011;62025;39.238;9.126;2023-05-02T08:02:58;4.43;;;2.47;;
63046;SDS011;62025;39.238;9.126;2023-05-02T08:05:24;5.38;;;2.40;;
63046;SDS011;62025;39.238;9.126;2023-05-02T08:07:50;5.32;;;2.33;;
63046;SDS011;62025;39.238;9.126;2023-05-02T08:10:16;6.47;;;2.33;;
63046;SDS011;62025;39.238;9.126;2023-05-02T08:12:42;6.05;;;2.30;;
63046;SDS011;62025;39.238;9.126;2023-05-02T08:15:10;7.03;;;2.70;;
63046;SDS011;62025;39.238;9.126;2023-05-02T08:17:37;6.97;;;2.10;;
63046;SDS011;62025;39.238;9.126;2023-05-02T08:20:03;10.82;;;2.50;;
63046;SDS011;62025;39.238;9.126;2023-05-02T08:22:30;7.03;;;2.40;;
63046;SDS011;62025;39.238;9.126;2023-05-02T08:24:56;5.32;;;2.13;;
63046;SDS011;62025;39.238;9.126;2023-05-02T08:27:22;5.53;;;2.30;;
63046;SDS011;62025;39.238;9.126;2023-05-02T08:29:48;5.88;;;2.50;;
63046;SDS011;62025;39.238;9.126;2023-05-02T08:32:14;6.28;;;1.95;;
63046;SDS011;62025;39.238;9.126;2023-05-02T08:34:40;4.00;;;2.40;;
63046;SDS011;62025;39.238;9.126;2023-05-02T08:37:07;5.00;;;2.40;;
63046;SDS011;62025;39.238;9.126;2023-05-02T08:39:36;6.97;;;1.88;;
63046;SDS011;62025;39.238;9.126;2023-05-02T08:42:05;2.60;;;1.77;;
63046;SDS011;62025;39.238;9.126;2023-05-02T08:44:32;4.97;;;2.00;;
63046;SDS011;62025;39.238;9.126;2023-05-02T08:46:59;4.15;;;1.90;;
63046;SDS011;62025;39.238;9.126;2023-05-02T08:49:26;9.32;;;2.08;;
63046;SDS011;62025;39.238;9.126;2023-05-02T08:51:55;4.70;;;2.00;;
63046;SDS011;62025;39.238;9.126;2023-05-02T08:54:24;2.70;;;1.75;;
63046;SDS011;62025;39.238;9.126;2023-05-02T08:56:54;4.97;;;1.98;;
63046;SDS011;62025;39.238;9.126;2023-05-02T08:59:23;4.05;;;1.90;;
63046;SDS011;62025;39.238;9.126;2023-05-02T09:01:51;6.75;;;2.00;;
63046;SDS011;62025;39.238;9.126;2023-05-02T09:04:24;4.07;;;2.00;;
63046;SDS011;62025;39.238;9.126;2023-05-02T09:06:57;4.45;;;2.10;;
63046;SDS011;62025;39.238;9.126;2023-05-02T09:09:23;4.10;;;1.85;;
63046;SDS011;62025;39.238;9.126;2023-05-02T09:11:50;6.90;;;2.20;;
63046;SDS011;62025;39.238;9.126;2023-05-02T09:14:17;8.88;;;2.33;;
63046;SDS011;62025;39.238;9.126;2023-05-02T09:16:43;6.40;;;2.33;;
63046;SDS011;62025;39.238;9.126;2023-05-02T09:19:09;3.90;;;2.15;;
63046;SDS011;62025;39.238;9.126;2023-05-02T09:21:49;5.25;;;2.22;;
63046;SDS011;62025;39.238;9.126;2023-05-02T09:24:16;4.90;;;2.30;;
63046;SDS011;62025;39.238;9.126;2023-05-02T09:26:44;16.45;;;2.55;;
63046;SDS011;62025;39.238;9.126;2023-05-02T09:29:29;10.98;;;3.03;;
63046;SDS011;62025;39.238;9.126;2023-05-02T09:32:04;8.15;;;2.25;;
63046;SDS011;62025;39.238;9.126;2023-05-02T09:34:31;5.97;;;2.30;;
63046;SDS011;62025;39.238;9.126;2023-05-02T09:36:58;7.90;;;2.30;;
63046;SDS011;62025;39.238;9.126;2023-05-02T09:39:25;9.50;;;2.50;;
63046;SDS011;62025;39.238;9.126;2023-05-02T09:41:53;7.70;;;2.60;;
63046;SDS011;62025;39.238;9.126;2023-05-02T09:44:21;6.43;;;2.45;;
63046;SDS011;62025;39.238;9.126;2023-05-02T09:46:51;6.22;;;3.00;;
63046;SDS011;62025;39.238;9.126;2023-05-02T09:52:10;8.30;;;2.80;;
63046;SDS011;62025;39.238;9.126;2023-05-02T09:54:41;8.02;;;2.67;;
63046;SDS011;62025;39.238;9.126;2023-05-02T09:57:08;6.57;;;2.70;;
63046;SDS011;62025;39.238;9.126;2023-05-02T09:59:35;7.38;;;2.80;;
63046;SDS011;62025;39.238;9.126;2023-05-02T10:02:02;7.63;;;2.67;;
63046;SDS011;62025;39.238;9.126;2023-05-02T10:04:30;9.40;;;3.00;;
63046;SDS011;62025;39.238;9.126;2023-05-02T10:06:58;8.68;;;3.08;;
63046;SDS011;62025;39.238;9.126;2023-05-02T10:09:26;8.93;;;3.03;;
63046;SDS011;62025;39.238;9.126;2023-05-02T10:11:56;8.00;;;3.13;;
63046;SDS011;62025;39.238;9.126;2023-05-02T10:14:30;5.78;;;3.00;;
63046;SDS011;62025;39.238;9.126;2023-05-02T10:17:15;7.68;;;2.85;;
63046;SDS011;62025;39.238;9.126;2023-05-02T10:19:53;6.53;;;3.17;;
63046;SDS011;62025;39.238;9.126;2023-05-02T10:22:25;9.10;;;2.80;;
63046;SDS011;62025;39.238;9.126;2023-05-02T10:24:52;6.53;;;2.30;;
63046;SDS011;62025;39.238;9.126;2023-05-02T10:27:19;5.47;;;2.53;;
63046;SDS011;62025;39.238;9.126;2023-05-02T10:29:45;4.55;;;2.08;;
63046;SDS011;62025;39.238;9.126;2023-05-02T10:32:12;7.07;;;2.53;;
63046;SDS011;62025;39.238;9.126;2023-05-02T10:34:41;4.07;;;2.58;;
63046;SDS011;62025;39.238;9.126;2023-05-02T10:39:36;5.93;;;2.67;;
63046;SDS011;62025;39.238;9.126;2023-05-02T10:42:03;5.55;;;2.70;;
63046;SDS011;62025;39.238;9.126;2023-05-02T10:49:54;8.20;;;3.28;;
63046;SDS011;62025;39.238;9.126;2023-05-02T11:00:32;11.30;;;3.63;;
63046;SDS011;62025;39.238;9.126;2023-05-02T11:02:59;5.38;;;2.83;;
63046;SDS011;62025;39.238;9.126;2023-05-02T11:05:25;7.22;;;3.20;;
63046;SDS011;62025;39.238;9.126;2023-05-02T11:10:40;6.32;;;2.85;;
63046;SDS011;62025;39.238;9.126;2023-05-02T11:13:06;8.80;;;2.60;;
63046;SDS011;62025;39.238;9.126;2023-05-02T11:18:02;6.53;;;2.67;;
63046;SDS011;62025;39.238;9.126;2023-05-02T11:20:39;8.80;;;2.92;;
63046;SDS011;62025;39.238;9.126;2023-05-02T11:25:42;5.05;;;2.55;;
63046;SDS011;62025;39.238;9.126;2023-05-02T11:28:44;7.47;;;2.72;;
63046;SDS011;62025;39.238;9.126;2023-05-02T11:31:03;3.50;;;2.35;;
63046;SDS011;62025;39.238;9.126;2023-05-02T11:33:34;4.68;;;2.67;;
63046;SDS011;62025;39.238;9.126;2023-05-02T11:36:00;8.23;;;2.50;;
63046;SDS011;62025;39.238;9.126;2023-05-02T11:38:33;3.33;;;2.00;;
63046;SDS011;62025;39.238;9.126;2023-05-02T11:41:02;6.32;;;2.30;;
63046;SDS011;62025;39.238;9.126;2023-05-02T11:43:28;4.30;;;2.40;;
63046;SDS011;62025;39.238;9.126;2023-05-02T11:45:55;3.40;;;2.15;;
63046;SDS011;62025;39.238;9.126;2023-05-02T11:48:28;4.47;;;2.30;;
63046;SDS011;62025;39.238;9.126;2023-05-02T11:50:56;3.75;;;2.08;;
63046;SDS011;62025;39.238;9.126;2023-05-02T11:53:30;3.47;;;2.50;;
63046;SDS011;62025;39.238;9.126;2023-05-02T11:55:59;5.20;;;2.40;;
63046;SDS011;62025;39.238;9.126;2023-05-02T11:58:29;4.07;;;2.10;;
63046;SDS011;62025;39.238;9.126;2023-05-02T12:00:58;5.75;;;2.05;;
63046;SDS011;62025;39.238;9.126;2023-05-02T12:03:38;4.65;;;2.30;;
63046;SDS011;62025;39.238;9.126;2023-05-02T12:06:14;2.28;;;1.83;;
63046;SDS011;62025;39.238;9.126;2023-05-02T12:08:43;4.50;;;2.10;;
63046;SDS011;62025;39.238;9.126;2023-05-02T12:11:11;5.05;;;2.13;;
63046;SDS011;62025;39.238;9.126;2023-05-02T12:13:45;3.53;;;1.88;;
63046;SDS011;62025;39.238;9.126;2023-05-02T12:16:14;4.95;;;1.90;;
63046;SDS011;62025;39.238;9.126;2023-05-02T12:18:41;4.57;;;2.22;;
63046;SDS011;62025;39.238;9.126;2023-05-02T12:21:07;6.72;;;2.33;;
63046;SDS011;62025;39.238;9.126;2023-05-02T12:23:34;3.17;;;1.70;;
63046;SDS011;62025;39.238;9.126;2023-05-02T12:26:09;2.03;;;1.52;;
63046;SDS011;62025;39.238;9.126;2023-05-02T12:28:51;6.40;;;2.08;;
63046;SDS011;62025;39.238;9.126;2023-05-02T12:31:22;4.35;;;1.85;;
63046;SDS011;62025;39.238;9.126;2023-05-02T12:33:49;5.43;;;2.10;;
63046;SDS011;62025;39.238;9.126;2023-05-02T12:36:17;4.68;;;1.52;;
63046;SDS011;62025;39.238;9.126;2023-05-02T12:38:47;2.90;;;1.80;;
63046;SDS011;62025;39.238;9.126;2023-05-02T12:41:29;5.38;;;2.10;;
63046;SDS011;62025;39.238;9.126;2023-05-02T12:44:00;5.55;;;2.25;;
63046;SDS011;62025;39.238;9.126;2023-05-02T12:46:26;3.67;;;2.00;;
63046;SDS011;62025;39.238;9.126;2023-05-02T12:49:00;6.18;;;2.33;;
63046;SDS011;62025;39.238;9.126;2023-05-02T12:53:58;4.38;;;2.30;;
63046;SDS011;62025;39.238;9.126;2023-05-02T12:56:24;5.45;;;1.90;;
63046;SDS011;62025;39.238;9.126;2023-05-02T12:58:56;4.97;;;2.10;;
63046;SDS011;62025;39.238;9.126;2023-05-02T13:01:25;3.80;;;2.00;;
63046;SDS011;62025;39.238;9.126;2023-05-02T13:03:51;5.32;;;2.78;;
63046;SDS011;62025;39.238;9.126;2023-05-02T13:06:17;4.57;;;2.30;;
63046;SDS011;62025;39.238;9.126;2023-05-02T13:08:43;4.68;;;2.20;;
63046;SDS011;62025;39.238;9.126;2023-05-02T13:11:09;4.80;;;2.22;;
63046;SDS011;62025;39.238;9.126;2023-05-02T13:13:35;4.75;;;1.90;;
63046;SDS011;62025;39.238;9.126;2023-05-02T13:16:01;3.33;;;1.67;;
63046;SDS011;62025;39.238;9.126;2023-05-02T13:18:27;5.25;;;2.00;;
63046;SDS011;62025;39.238;9.126;2023-05-02T13:20:53;3.38;;;1.80;;
63046;SDS011;62025;39.238;9.126;2023-05-02T13:23:20;3.70;;;1.80;;
63046;SDS011;62025;39.238;9.126;2023-05-02T13:25:46;3.65;;;2.15;;
63046;SDS011;62025;39.238;9.126;2023-05-02T13:28:12;4.22;;;2.28;;
63046;SDS011;62025;39.238;9.126;2023-05-02T13:30:37;4.75;;;2.30;;
63046;SDS011;62025;39.238;9.126;2023-05-02T13:33:04;5.65;;;2.33;;
63046;SDS011;62025;39.238;9.126;2023-05-02T13:35:30;3.78;;;2.00;;
63046;SDS011;62025;39.238;9.126;2023-05-02T13:37:56;4.10;;;1.75;;
63046;SDS011;62025;39.238;9.126;2023-05-02T13:40:22;3.95;;;1.35;;
63046;SDS011;62025;39.238;9.126;2023-05-02T13:42:48;2.75;;;1.40;;
63046;SDS011;62025;39.238;9.126;2023-05-02T13:45:14;1.63;;;1.30;;
63046;SDS011;62025;39.238;9.126;2023-05-02T13:47:41;2.30;;;1.30;;
63046;SDS011;62025;39.238;9.126;2023-05-02T13:50:07;2.03;;;1.40;;
63046;SDS011;62025;39.238;9.126;2023-05-02T13:52:33;3.80;;;1.90;;
63046;SDS011;62025;39.238;9.126;2023-05-02T13:54:59;2.03;;;1.45;;
63046;SDS011;62025;39.238;9.126;2023-05-02T13:57:25;3.60;;;1.42;;
63046;SDS011;62025;39.238;9.126;2023-05-02T13:59:52;2.25;;;1.20;;
63046;SDS011;62025;39.238;9.126;2023-05-02T14:02:17;1.85;;;1.33;;
63046;SDS011;62025;39.238;9.126;2023-05-02T14:04:44;3.28;;;1.98;;
63046;SDS011;62025;39.238;9.126;2023-05-02T14:07:10;3.25;;;1.60;;
63046;SDS011;62025;39.238;9.126;2023-05-02T14:09:36;3.72;;;1.58;;
63046;SDS011;62025;39.238;9.126;2023-05-02T14:12:02;7.78;;;1.83;;
63046;SDS011;62025;39.238;9.126;2023-05-02T14:14:28;4.35;;;1.58;;
63046;SDS011;62025;39.238;9.126;2023-05-02T14:16:54;4.15;;;1.70;;
63046;SDS011;62025;39.238;9.126;2023-05-02T14:19:20;2.75;;;1.67;;
63046;SDS011;62025;39.238;9.126;2023-05-02T14:21:46;2.42;;;1.40;;
63046;SDS011;62025;39.238;9.126;2023-05-02T14:24:13;4.22;;;1.35;;
63046;SDS011;62025;39.238;9.126;2023-05-02T14:26:40;2.15;;;1.42;;
63046;SDS011;62025;39.238;9.126;2023-05-02T14:29:06;3.60;;;1.73;;
63046;SDS011;62025;39.238;9.126;2023-05-02T14:31:33;1.77;;;1.30;;
63046;SDS011;62025;39.238;9.126;2023-05-02T14:33:59;1.73;;;1.30;;
63046;SDS011;62025;39.238;9.126;2023-05-02T14:36:25;2.22;;;1.25;;
63046;SDS011;62025;39.238;9.126;2023-05-02T14:38:51;2.60;;;1.30;;
63046;SDS011;62025;39.238;9.126;2023-05-02T14:41:17;3.22;;;1.40;;
63046;SDS011;62025;39.238;9.126;2023-05-02T14:43:43;2.22;;;1.35;;
63046;SDS011;62025;39.238;9.126;2023-05-02T14:46:09;5.68;;;1.58;;
63046;SDS011;62025;39.238;9.126;2023-05-02T14:48:35;5.13;;;1.50;;
63046;SDS011;62025;39.238;9.126;2023-05-02T14:51:02;1.40;;;1.30;;
63046;SDS011;62025;39.238;9.126;2023-05-02T14:53:29;2.58;;;1.42;;
63046;SDS011;62025;39.238;9.126;2023-05-02T14:55:55;3.58;;;1.50;;
63046;SDS011;62025;39.238;9.126;2023-05-02T14:58:21;3.72;;;1.48;;
63046;SDS011;62025;39.238;9.126;2023-05-02T15:00:46;4.25;;;1.73;;
63046;SDS011;62025;39.238;9.126;2023-05-02T15:03:13;2.67;;;1.55;;
63046;SDS011;62025;39.238;9.126;2023-05-02T15:05:39;5.53;;;1.90;;
63046;SDS011;62025;39.238;9.126;2023-05-02T15:08:05;3.88;;;1.75;;
63046;SDS011;62025;39.238;9.126;2023-05-02T15:10:35;3.03;;;2.17;;
63046;SDS011;62025;39.238;9.126;2023-05-02T15:13:05;6.55;;;2.50;;
63046;SDS011;62025;39.238;9.126;2023-05-02T15:15:31;4.22;;;2.00;;
63046;SDS011;62025;39.238;9.126;2023-05-02T15:17:57;4.07;;;2.03;;
63046;SDS011;62025;39.238;9.126;2023-05-02T15:20:23;2.83;;;1.80;;
63046;SDS011;62025;39.238;9.126;2023-05-02T15:22:49;3.03;;;1.88;;
63046;SDS011;62025;39.238;9.126;2023-05-02T15:25:15;4.75;;;1.77;;
63046;SDS011;62025;39.238;9.126;2023-05-02T15:27:41;5.65;;;1.77;;
63046;SDS011;62025;39.238;9.126;2023-05-02T15:30:08;6.32;;;1.98;;
63046;SDS011;62025;39.238;9.126;2023-05-02T15:32:34;2.92;;;1.50;;
63046;SDS011;62025;39.238;9.126;2023-05-02T15:35:00;3.58;;;1.50;;
63046;SDS011;62025;39.238;9.126;2023-05-02T15:37:28;6.65;;;1.25;;
63046;SDS011;62025;39.238;9.126;2023-05-02T15:39:54;4.43;;;1.30;;
63046;SDS011;62025;39.238;9.126;2023-05-02T15:42:20;2.47;;;1.20;;
63046;SDS011;62025;39.238;9.126;2023-05-02T15:44:46;1.30;;;1.20;;
63046;SDS011;62025;39.238;9.126;2023-05-02T15:47:12;2.05;;;1.30;;